Time;durP1;ratioP1;P1;durP2;ratioP2;P2;SDS_P1;SDS_P2;PMS_P1;PMS_P2;Temp;Humidity;BMP_temperature;BMP_pressure;BME280_temperature;BME280_humidity;BME280_pressure;Samples;Min_cycle;Max_cycle;Signal;HPM_P1;HPM_P2
2023/04/20 00:00:38;;;;;;;20.42;7.78;;;;;;;9.72;66.20;101943.97;4990639;28;20041;-52
2023/04/20 00:03:03;;;;;;;18.13;7.20;;;;;;;9.72;66.08;101943.97;5005509;28;20689;-51
2023/04/20 00:05:30;;;;;;;16.42;7.10;;;;;;;9.71;66.16;101935.22;4997998;28;20435;-51
2023/04/20 00:07:57;;;;;;;19.30;7.90;;;;;;;9.73;65.98;101938.66;4998134;28;20033;-54
2023/04/20 00:10:23;;;;;;;17.83;7.70;;;;;;;9.75;66.05;101938.59;4994620;28;20044;-54
2023/04/20 00:12:48;;;;;;;21.02;7.80;;;;;;;9.73;66.22;101935.16;5001702;28;20025;-51
2023/04/20 00:15:14;;;;;;;16.80;7.85;;;;;;;9.70;66.14;101938.78;5001812;28;20494;-53
2023/04/20 00:17:39;;;;;;;20.95;7.55;;;;;;;9.69;66.40;101944.94;4992336;28;26598;-52
2023/04/20 00:20:06;;;;;;;19.48;7.70;;;;;;;9.72;66.35;101949.22;5008942;28;20129;-54
2023/04/20 00:22:32;;;;;;;20.58;7.28;;;;;;;9.74;66.17;101957.91;4999258;28;20040;-54
2023/04/20 00:24:58;;;;;;;17.85;7.35;;;;;;;9.75;66.14;101957.00;5003485;28;20037;-54
2023/04/20 00:27:23;;;;;;;21.08;9.25;;;;;;;9.73;66.10;101950.94;5000745;28;20045;-54
2023/04/20 00:29:49;;;;;;;21.17;8.88;;;;;;;9.74;66.04;101945.66;5006480;28;20395;-55
2023/04/20 00:32:14;;;;;;;14.13;7.65;;;;;;;9.70;66.19;101933.50;5005603;28;20105;-55
2023/04/20 00:34:40;;;;;;;17.60;7.60;;;;;;;9.68;66.44;101935.34;5003012;28;20041;-54
2023/04/20 00:37:05;;;;;;;23.50;8.00;;;;;;;9.67;66.42;101938.88;4999763;28;20037;-54
2023/04/20 00:39:31;;;;;;;17.45;7.25;;;;;;;9.64;66.35;101928.47;4999650;28;20030;-53
2023/04/20 00:42:05;;;;;;;17.85;7.78;;;;;;;9.60;66.57;101929.50;5000758;28;20030;-53
2023/04/20 00:44:30;;;;;;;21.33;8.88;;;;;;;9.55;66.67;101931.41;4998215;28;20108;-52
2023/04/20 00:46:56;;;;;;;14.35;6.78;;;;;;;9.55;66.60;101932.25;5006272;28;20385;-52
2023/04/20 00:49:25;;;;;;;21.67;8.07;;;;;;;9.54;66.55;101932.31;5002591;28;20034;-53
2023/04/20 00:51:51;;;;;;;16.80;7.93;;;;;;;9.54;66.82;101937.56;5004708;28;20043;-53
2023/04/20 00:54:17;;;;;;;23.63;7.55;;;;;;;9.58;66.66;101931.31;5003744;28;20036;-52
2023/04/20 00:56:43;;;;;;;19.40;7.60;;;;;;;9.61;66.54;101933.81;5002921;28;20096;-52
2023/04/20 00:59:09;;;;;;;23.55;7.65;;;;;;;9.64;66.69;101933.72;5001761;28;20073;-53
2023/04/20 01:01:34;;;;;;;24.95;8.60;;;;;;;9.68;66.66;101937.97;4978801;28;20652;-53
2023/04/20 01:04:00;;;;;;;19.92;8.20;;;;;;;9.72;66.60;101936.94;4995768;28;22667;-52
2023/04/20 01:06:26;;;;;;;19.25;8.13;;;;;;;9.75;66.67;101936.84;4996823;28;20080;-53
2023/04/20 01:08:52;;;;;;;16.88;8.45;;;;;;;9.79;66.51;101927.06;4996090;28;20041;-55
2023/04/20 01:11:17;;;;;;;27.45;7.30;;;;;;;9.80;66.55;101930.53;4980488;28;20065;-51
2023/04/20 01:13:43;;;;;;;23.67;7.00;;;;;;;9.82;66.43;101926.09;5008550;28;20033;-54
2023/04/20 01:16:10;;;;;;;19.35;8.13;;;;;;;9.80;66.54;101928.78;4998603;28;20041;-51
2023/04/20 01:18:47;;;;;;;20.25;8.18;;;;;;;9.81;66.52;101925.25;4999354;28;20057;-52
2023/04/20 01:21:13;;;;;;;17.67;6.75;;;;;;;9.81;66.61;101922.63;5004798;28;20071;-53
2023/04/20 01:23:39;;;;;;;16.58;7.70;;;;;;;9.81;66.41;101927.00;4996007;28;20412;-55
2023/04/20 01:26:08;;;;;;;16.63;6.65;;;;;;;9.81;66.52;101921.75;4996084;28;20038;-52
2023/04/20 01:28:34;;;;;;;16.70;7.60;;;;;;;9.82;66.49;101932.22;5004187;28;20079;-53
2023/04/20 01:31:01;;;;;;;18.15;6.25;;;;;;;9.80;66.69;101920.03;5006420;28;20033;-51
2023/04/20 01:33:27;;;;;;;24.73;6.78;;;;;;;9.81;66.56;101927.00;5004325;28;20503;-53
2023/04/20 01:35:52;;;;;;;13.43;6.78;;;;;;;9.83;66.50;101927.81;4998232;28;20041;-53
2023/04/20 01:38:19;;;;;;;20.90;7.55;;;;;;;9.84;66.39;101929.53;5007714;28;20049;-53
2023/04/20 01:40:44;;;;;;;14.93;7.55;;;;;;;9.82;66.31;101928.72;5002111;28;20025;-52
2023/04/20 01:43:10;;;;;;;15.27;6.53;;;;;;;9.81;66.56;101924.38;5000419;28;20042;-55
2023/04/20 01:45:35;;;;;;;17.98;6.55;;;;;;;9.83;66.51;101927.81;5004146;28;20120;-51
2023/04/20 01:48:01;;;;;;;15.20;5.63;;;;;;;9.81;66.46;101925.25;5001586;28;20030;-56
2023/04/20 01:50:26;;;;;;;15.25;5.68;;;;;;;9.81;66.48;101929.63;4999809;28;20827;-54
2023/04/20 01:52:52;;;;;;;21.65;6.35;;;;;;;9.83;66.47;101922.56;5002079;28;20029;-55
2023/04/20 01:55:17;;;;;;;18.58;6.25;;;;;;;9.84;66.57;101925.13;5006591;28;20038;-57
2023/04/20 01:57:43;;;;;;;19.33;6.25;;;;;;;9.87;66.45;101924.16;5002107;28;20033;-54
2023/04/20 02:00:11;;;;;;;12.25;6.25;;;;;;;9.89;66.54;101930.25;5009496;28;20493;-50
2023/04/20 02:02:36;;;;;;;14.15;6.85;;;;;;;9.89;66.49;101924.97;5002153;28;20128;-54
2023/04/20 02:05:02;;;;;;;18.15;6.10;;;;;;;9.93;66.38;101926.56;5004705;28;20044;-54
2023/04/20 02:07:27;;;;;;;15.93;6.57;;;;;;;9.91;66.23;101926.63;4991295;28;20033;-53
2023/04/20 02:09:52;;;;;;;24.20;7.80;;;;;;;9.93;66.31;101923.94;4987253;28;20499;-49
2023/04/20 02:12:18;;;;;;;16.65;6.75;;;;;;;9.94;66.40;101923.03;5002463;28;20048;-50
2023/04/20 02:14:43;;;;;;;21.77;6.75;;;;;;;9.91;66.56;101921.38;4998278;28;20030;-54
2023/04/20 02:17:09;;;;;;;18.25;6.68;;;;;;;9.85;66.67;101921.59;5005756;28;20039;-50
2023/04/20 02:19:35;;;;;;;21.08;6.65;;;;;;;9.88;66.53;101925.88;5000238;28;20045;-53
2023/04/20 02:22:01;;;;;;;17.55;5.85;;;;;;;9.87;66.65;101921.53;4999633;28;20080;-55
2023/04/20 02:24:26;;;;;;;15.75;6.43;;;;;;;9.89;66.61;101922.34;5012364;28;20030;-53
2023/04/20 02:26:52;;;;;;;16.00;6.72;;;;;;;9.93;66.64;101921.31;5000815;28;20029;-53
2023/04/20 02:29:17;;;;;;;17.45;7.18;;;;;;;9.90;66.54;101918.81;5004494;28;20083;-53
2023/04/20 02:31:43;;;;;;;14.95;7.32;;;;;;;9.89;66.74;101917.09;5002213;28;20357;-53
2023/04/20 02:37:31;;;;;;;28.30;8.00;;;;;;;9.86;66.39;101914.56;5018955;28;20037;-49
2023/04/20 02:39:57;;;;;;;19.00;8.82;;;;;;;9.88;66.74;101910.13;5013361;28;20313;-53
2023/04/20 02:42:22;;;;;;;15.70;7.68;;;;;;;9.85;66.77;101916.31;5006080;28;20048;-48
2023/04/20 02:44:47;;;;;;;20.80;7.82;;;;;;;9.85;66.88;101910.22;4985375;28;20033;-50
2023/04/20 02:47:13;;;;;;;17.48;7.65;;;;;;;9.83;66.88;101912.88;5007039;28;20092;-52
2023/04/20 02:49:38;;;;;;;16.13;7.53;;;;;;;9.85;66.89;101905.81;5005439;28;20555;-50
2023/04/20 02:52:04;;;;;;;23.95;7.43;;;;;;;9.87;66.91;101903.97;5007158;28;20377;-51
2023/04/20 02:54:30;;;;;;;26.52;8.35;;;;;;;9.89;66.93;101896.06;5002491;28;20075;-54
2023/04/20 02:56:55;;;;;;;15.65;7.57;;;;;;;9.91;66.76;101902.97;5004876;28;20042;-51
2023/04/20 02:59:21;;;;;;;26.67;7.30;;;;;;;9.92;66.72;101906.44;4990706;28;20080;-50
2023/04/20 03:01:46;;;;;;;20.60;8.15;;;;;;;9.92;66.83;101901.19;4998496;28;20246;-53
2023/04/20 03:04:12;;;;;;;23.35;8.07;;;;;;;9.94;66.84;101904.63;4999367;28;20029;-51
2023/04/20 03:06:39;;;;;;;17.83;8.48;;;;;;;9.94;66.76;101912.50;4997280;28;20411;-50
2023/04/20 03:09:05;;;;;;;20.48;7.32;;;;;;;9.93;66.78;101910.78;4995496;28;20029;-50
2023/04/20 03:11:30;;;;;;;19.23;7.88;;;;;;;9.93;66.88;101918.66;5003214;28;20037;-53
2023/04/20 03:13:56;;;;;;;18.55;6.90;;;;;;;9.89;66.85;101911.84;5002175;28;20041;-52
2023/04/20 03:16:21;;;;;;;20.38;7.97;;;;;;;9.90;66.96;101918.81;5002235;28;20112;-53
2023/04/20 03:18:46;;;;;;;22.92;8.20;;;;;;;9.89;67.00;101910.06;4994890;28;20490;-51
2023/04/20 03:21:13;;;;;;;20.10;7.70;;;;;;;9.91;67.00;101917.88;5005586;28;20399;-52
2023/04/20 03:23:38;;;;;;;24.25;7.55;;;;;;;9.94;66.90;101915.13;4999869;28;20041;-52
2023/04/20 03:26:04;;;;;;;15.07;7.00;;;;;;;9.91;66.82;101925.75;5008108;28;20033;-53
2023/04/20 03:28:29;;;;;;;22.48;7.78;;;;;;;9.97;66.98;101922.06;5000183;28;20361;-53
2023/04/20 03:30:55;;;;;;;20.15;7.57;;;;;;;10.00;67.12;101924.56;5002881;28;24912;-52
2023/04/20 03:33:20;;;;;;;19.67;7.63;;;;;;;10.03;67.08;101924.47;5005662;28;20033;-51
2023/04/20 03:35:45;;;;;;;21.95;8.65;;;;;;;10.04;67.04;101926.19;4998311;28;20032;-52
2023/04/20 03:38:11;;;;;;;16.50;8.35;;;;;;;10.05;67.11;101927.91;5003990;28;20472;-54
2023/04/20 03:40:36;;;;;;;19.90;9.15;;;;;;;10.05;67.16;101927.91;4979698;28;20044;-53
2023/04/20 03:43:01;;;;;;;19.42;8.05;;;;;;;10.07;67.14;101921.66;5001571;28;20045;-54
2023/04/20 03:45:27;;;;;;;14.45;8.38;;;;;;;10.08;67.20;101927.78;5002930;28;20036;-53
2023/04/20 03:47:52;;;;;;;23.30;9.05;;;;;;;10.10;67.20;101930.34;5001384;28;20458;-52
2023/04/20 03:50:18;;;;;;;22.63;8.63;;;;;;;10.10;67.03;101919.84;4994154;28;20037;-53
2023/04/20 03:52:43;;;;;;;21.77;9.00;;;;;;;10.13;67.08;101914.47;5002246;28;20040;-50
2023/04/20 03:55:09;;;;;;;17.85;8.02;;;;;;;10.11;67.19;101927.69;5007195;28;20131;-51
2023/04/20 03:57:34;;;;;;;25.25;7.88;;;;;;;10.10;67.16;101925.97;5004152;28;20128;-53
2023/04/20 04:00:00;;;;;;;19.30;9.10;;;;;;;10.13;67.17;101917.09;5004562;28;20428;-52
2023/04/20 04:02:25;;;;;;;22.23;8.90;;;;;;;10.13;67.12;101914.47;5002490;28;20056;-54
2023/04/20 04:04:51;;;;;;;19.70;9.25;;;;;;;10.09;67.34;101915.47;5008009;28;20144;-51
2023/04/20 04:07:16;;;;;;;20.92;8.65;;;;;;;10.13;67.17;101914.47;4998122;28;20072;-55
2023/04/20 04:09:41;;;;;;;26.00;9.15;;;;;;;10.17;67.13;101926.59;5002040;28;20514;-52
2023/04/20 04:12:07;;;;;;;15.15;8.07;;;;;;;10.18;67.08;101923.06;4998572;28;20044;-52
2023/04/20 04:14:34;;;;;;;23.42;9.38;;;;;;;10.19;66.91;101922.97;5007059;28;20025;-53
2023/04/20 04:16:59;;;;;;;25.48;9.40;;;;;;;10.19;67.07;101922.16;5002057;28;20037;-53
2023/04/20 04:19:25;;;;;;;19.50;8.73;;;;;;;10.18;67.02;101918.63;5005916;28;20030;-52
2023/04/20 04:21:50;;;;;;;22.55;8.77;;;;;;;10.17;67.13;101923.97;4999999;28;20057;-52
2023/04/20 04:24:16;;;;;;;21.58;8.73;;;;;;;10.16;67.23;101930.13;4999848;28;20030;-52
2023/04/20 04:26:42;;;;;;;31.05;14.32;;;;;;;10.17;67.12;101927.44;5005670;28;20108;-52
2023/04/20 04:29:09;;;;;;;25.00;9.85;;;;;;;10.20;67.19;101929.13;5005998;28;20120;-51
2023/04/20 04:31:34;;;;;;;22.95;9.60;;;;;;;10.17;67.19;101916.06;4999237;28;20038;-54
2023/04/20 04:34:00;;;;;;;21.17;8.85;;;;;;;10.19;67.18;101924.78;4978508;28;20061;-51
2023/04/20 04:36:25;;;;;;;25.17;10.55;;;;;;;10.17;67.04;101916.06;5002730;28;20469;-53
2023/04/20 04:38:51;;;;;;;23.67;8.80;;;;;;;10.16;67.33;101920.47;4991912;28;21290;-53
2023/04/20 04:41:17;;;;;;;23.08;9.90;;;;;;;10.17;67.22;101926.59;4995244;28;20073;-51
2023/04/20 04:43:43;;;;;;;19.40;9.57;;;;;;;10.17;67.32;101916.06;5002161;28;20039;-51
2023/04/20 04:46:10;;;;;;;18.27;8.93;;;;;;;10.14;67.04;101921.44;5004453;28;20060;-53
2023/04/20 04:48:36;;;;;;;22.13;7.72;;;;;;;10.15;67.47;101933.69;5008344;28;20037;-51
2023/04/20 04:51:03;;;;;;;19.83;8.57;;;;;;;10.15;67.38;101920.53;4994203;28;20519;-47
2023/04/20 04:53:28;;;;;;;19.08;8.88;;;;;;;10.13;67.61;101927.63;5001294;28;20060;-51
2023/04/20 04:55:54;;;;;;;16.48;9.13;;;;;;;10.14;67.71;101929.34;5006526;28;20479;-53
2023/04/20 04:58:19;;;;;;;16.35;7.93;;;;;;;10.20;67.52;101929.13;5000106;28;20033;-51
2023/04/20 05:00:45;;;;;;;25.75;10.32;;;;;;;10.22;67.56;101938.66;4994851;28;20038;-53
2023/04/20 05:03:10;;;;;;;17.92;7.70;;;;;;;10.25;67.52;101942.94;5000360;28;20117;-54
2023/04/20 05:05:35;;;;;;;29.58;12.57;;;;;;;10.34;67.35;101937.34;5001892;28;21610;-53
2023/04/20 05:08:01;;;;;;;27.40;12.20;;;;;;;10.43;67.08;101938.81;5008977;28;20057;-53
2023/04/20 05:10:27;;;;;;;14.60;8.40;;;;;;;10.48;66.87;101936.00;5009428;28;20028;-55
2023/04/20 05:12:52;;;;;;;22.77;8.50;;;;;;;10.51;66.96;101946.41;5001258;28;20049;-55
2023/04/20 05:15:18;;;;;;;19.10;9.07;;;;;;;10.55;66.80;101949.78;5005589;28;20030;-53
2023/04/20 05:17:43;;;;;;;22.52;9.18;;;;;;;10.59;66.88;101957.50;5011006;28;20103;-51
2023/04/20 05:20:10;;;;;;;18.15;9.30;;;;;;;10.61;66.93;101958.28;5008775;28;20040;-53
2023/04/20 05:22:36;;;;;;;17.73;9.00;;;;;;;10.62;66.94;101967.91;5009172;28;20495;-55
2023/04/20 05:25:01;;;;;;;17.80;9.02;;;;;;;10.65;66.88;101977.44;5008952;28;20088;-53
2023/04/20 05:27:26;;;;;;;20.13;8.20;;;;;;;10.65;66.46;101974.81;5008180;28;20993;-52
2023/04/20 05:29:52;;;;;;;22.33;9.13;;;;;;;10.64;66.63;101978.38;5012208;28;20037;-53
2023/04/20 05:32:17;;;;;;;19.27;8.40;;;;;;;10.62;66.66;101991.59;5009982;28;20492;-52
2023/04/20 05:34:43;;;;;;;22.50;9.02;;;;;;;10.60;66.79;101998.69;5005976;28;20105;-51
2023/04/20 05:37:08;;;;;;;19.00;8.60;;;;;;;10.63;66.93;101993.31;5015160;28;20032;-52
2023/04/20 05:39:34;;;;;;;21.10;8.77;;;;;;;10.62;66.62;101996.88;5008220;28;20498;-51
2023/04/20 05:42:00;;;;;;;18.77;9.52;;;;;;;10.62;66.83;101990.72;5008524;28;20029;-54
2023/04/20 05:44:26;;;;;;;23.52;10.10;;;;;;;10.58;66.80;101983.88;5013068;28;20082;-53
2023/04/20 05:46:51;;;;;;;19.45;9.43;;;;;;;10.57;66.76;101985.63;5006342;28;20033;-53
2023/04/20 05:49:16;;;;;;;19.90;8.88;;;;;;;10.57;66.73;101983.00;5011790;28;20091;-53
2023/04/20 05:51:42;;;;;;;17.52;8.43;;;;;;;10.60;66.86;101988.16;5008358;28;20470;-53
2023/04/20 05:54:08;;;;;;;25.63;9.38;;;;;;;10.64;66.94;101984.50;5005599;28;20412;-52
2023/04/20 05:56:33;;;;;;;20.58;9.32;;;;;;;10.68;66.81;101986.09;5012734;28;20037;-53
2023/04/20 05:58:59;;;;;;;34.20;14.50;;;;;;;10.70;66.68;101985.16;5007182;28;20423;-54
2023/04/20 06:01:25;;;;;;;21.35;9.50;;;;;;;10.71;66.88;102006.19;5000300;28;20060;-54
2023/04/20 06:03:51;;;;;;;22.88;10.57;;;;;;;10.71;66.84;102007.94;5014309;28;20041;-54
2023/04/20 06:06:16;;;;;;;37.75;15.98;;;;;;;10.72;66.93;101997.38;5004063;28;20049;-53
2023/04/20 06:08:42;;;;;;;23.98;10.02;;;;;;;10.72;66.89;102000.00;5006325;28;20053;-53
2023/04/20 06:11:07;;;;;;;19.17;10.45;;;;;;;10.75;66.82;102013.03;4982515;28;20405;-54
2023/04/20 06:13:32;;;;;;;17.08;8.80;;;;;;;10.79;67.00;102008.53;5012211;28;20026;-52
2023/04/20 06:15:58;;;;;;;18.38;8.25;;;;;;;10.75;67.13;102004.28;5001692;28;20113;-53
2023/04/20 06:18:23;;;;;;;23.38;9.13;;;;;;;10.83;66.92;102004.84;5005817;28;20420;-53
2023/04/20 06:20:49;;;;;;;20.92;9.77;;;;;;;10.85;67.11;102005.63;5011107;28;20029;-51
2023/04/20 06:23:14;;;;;;;21.40;9.35;;;;;;;10.89;66.85;101994.06;5019812;28;20039;-56
2023/04/20 06:25:40;;;;;;;17.98;9.77;;;;;;;10.95;66.78;101999.13;5020792;28;20476;-52
2023/04/20 06:28:05;;;;;;;23.35;9.65;;;;;;;11.05;66.75;101999.59;5024522;28;20025;-55
2023/04/20 06:30:35;;;;;;;21.67;9.63;;;;;;;11.10;66.73;102004.69;5020707;28;20028;-51
2023/04/20 06:33:01;;;;;;;15.07;8.43;;;;;;;11.20;66.57;102011.31;5023222;28;20029;-53
2023/04/20 06:35:26;;;;;;;18.67;8.50;;;;;;;11.26;66.53;102011.06;5019890;28;20109;-54
2023/04/20 06:37:52;;;;;;;19.65;9.80;;;;;;;11.27;66.63;102012.75;5023738;28;20037;-54
2023/04/20 06:40:18;;;;;;;22.13;9.38;;;;;;;11.29;66.75;102005.66;5029130;28;20086;-55
2023/04/20 06:42:44;;;;;;;26.02;10.55;;;;;;;11.34;66.64;102013.41;5028618;28;20048;-54
2023/04/20 06:45:10;;;;;;;22.83;10.45;;;;;;;11.39;66.41;102008.78;5019244;28;20507;-50
2023/04/20 06:47:35;;;;;;;23.65;9.80;;;;;;;11.41;66.58;102004.31;5020868;28;20033;-51
2023/04/20 06:50:06;;;;;;;17.23;8.55;;;;;;;11.48;66.54;102017.25;5023031;28;20022;-50
2023/04/20 06:52:31;;;;;;;25.70;12.98;;;;;;;11.51;66.59;102012.69;5022871;28;20034;-53
2023/04/20 06:54:58;;;;;;;36.85;16.02;;;;;;;11.56;66.44;102016.00;5024583;28;20029;-50
2023/04/20 06:57:24;;;;;;;29.08;12.05;;;;;;;11.57;66.36;102017.69;5022519;28;20083;-54
2023/04/20 06:59:49;;;;;;;24.17;9.85;;;;;;;11.58;66.49;102018.56;5024506;28;20041;-51
2023/04/20 07:02:15;;;;;;;19.77;8.90;;;;;;;11.58;66.68;102029.09;5020989;28;20052;-51
2023/04/20 07:04:40;;;;;;;17.60;9.55;;;;;;;11.58;66.83;102034.38;5020586;28;20538;-54
2023/04/20 07:07:05;;;;;;;21.25;9.90;;;;;;;11.53;66.85;102026.66;5025217;28;20040;-50
2023/04/20 07:09:31;;;;;;;18.25;9.27;;;;;;;11.59;66.95;102031.66;5025894;28;20040;-53
2023/04/20 07:11:56;;;;;;;27.50;10.40;;;;;;;11.65;67.01;102040.25;5025536;28;20488;-54
2023/04/20 07:14:22;;;;;;;21.98;9.43;;;;;;;11.73;67.18;102035.50;5021215;28;20029;-50
2023/04/20 07:16:51;;;;;;;18.77;9.63;;;;;;;11.83;67.00;102039.50;5022283;28;20101;-53
2023/04/20 07:19:16;;;;;;;20.67;10.25;;;;;;;11.94;66.80;102030.25;5023412;28;20095;-53
2023/04/20 07:21:41;;;;;;;19.60;9.90;;;;;;;11.99;66.93;102025.69;5021865;28;20112;-54
2023/04/20 07:24:07;;;;;;;23.33;10.05;;;;;;;12.07;66.62;102026.19;5026120;28;20175;-51
2023/04/20 07:26:32;;;;;;;19.00;10.68;;;;;;;12.14;66.44;102030.28;5023889;28;20033;-55
2023/04/20 07:28:58;;;;;;;27.92;11.85;;;;;;;12.22;66.24;102029.94;5023312;28;20034;-54
2023/04/20 07:31:23;;;;;;;24.08;10.13;;;;;;;12.25;66.16;102023.66;5016560;28;20133;-55
2023/04/20 07:33:49;;;;;;;21.23;11.32;;;;;;;12.31;65.85;102034.81;5023132;28;20388;-51
2023/04/20 07:36:14;;;;;;;31.42;14.05;;;;;;;12.35;65.55;102035.53;5019370;28;20033;-54
2023/04/20 07:38:39;;;;;;;27.35;13.18;;;;;;;12.38;65.77;102024.00;5025367;28;20038;-51
2023/04/20 07:41:08;;;;;;;23.80;12.00;;;;;;;12.43;65.59;102028.13;5024313;28;20049;-54
2023/04/20 07:43:34;;;;;;;29.00;14.15;;;;;;;12.47;65.58;102035.00;5008215;28;20104;-55
2023/04/20 07:45:59;;;;;;;25.48;12.57;;;;;;;12.54;65.46;102039.97;5022750;28;20809;-51
2023/04/20 07:48:25;;;;;;;25.55;13.40;;;;;;;12.61;65.45;102038.78;5025900;28;20021;-52
2023/04/20 07:50:50;;;;;;;24.50;12.18;;;;;;;12.67;65.53;102041.13;5021614;28;20044;-55
2023/04/20 07:53:15;;;;;;;27.05;13.48;;;;;;;12.73;65.33;102030.31;5022415;28;20504;-53
2023/04/20 07:55:41;;;;;;;29.05;13.38;;;;;;;12.80;65.24;102039.63;5028276;28;20057;-54
2023/04/20 07:58:06;;;;;;;26.67;12.07;;;;;;;12.86;65.25;102033.22;5019261;28;20029;-51
2023/04/20 08:00:32;;;;;;;23.40;12.75;;;;;;;12.93;65.25;102041.72;5018148;28;20029;-51
2023/04/20 08:02:57;;;;;;;27.02;13.82;;;;;;;13.00;65.12;102047.59;5019945;28;20029;-53
2023/04/20 08:05:23;;;;;;;26.40;13.18;;;;;;;13.08;65.12;102035.69;5025440;28;20036;-51
2023/04/20 08:07:48;;;;;;;29.38;13.73;;;;;;;13.16;65.18;102047.69;5021649;28;20116;-51
2023/04/20 08:10:14;;;;;;;27.98;14.93;;;;;;;13.22;64.97;102040.31;5027208;28;20060;-54
2023/04/20 08:12:39;;;;;;;29.40;14.02;;;;;;;13.26;64.80;102033.09;5026610;28;20119;-53
2023/04/20 08:15:05;;;;;;;27.23;13.80;;;;;;;13.30;65.11;102032.03;5015946;28;20405;-53
2023/04/20 08:17:34;;;;;;;34.00;16.02;;;;;;;13.35;65.14;102035.31;5022387;28;20041;-51
2023/04/20 08:20:00;;;;;;;37.22;18.52;;;;;;;13.37;64.78;102028.16;5023659;28;20068;-55
2023/04/20 08:22:28;;;;;;;31.48;16.05;;;;;;;13.41;64.88;102036.81;5023588;28;20053;-53
2023/04/20 08:24:55;;;;;;;36.15;16.75;;;;;;;13.44;64.60;102031.41;5029479;28;20051;-53
2023/04/20 08:27:21;;;;;;;31.98;15.85;;;;;;;13.46;64.54;102028.66;5021698;28;20036;-52
2023/04/20 08:29:46;;;;;;;34.78;17.27;;;;;;;13.50;64.31;102030.22;5015386;28;20400;-54
2023/04/20 08:32:12;;;;;;;35.97;17.63;;;;;;;13.53;64.38;102040.66;5019590;28;20037;-51
2023/04/20 08:34:38;;;;;;;31.25;16.13;;;;;;;13.54;64.32;102042.34;5022953;28;20037;-53
2023/04/20 08:37:04;;;;;;;32.05;16.85;;;;;;;13.53;64.16;102036.22;5016372;28;20548;-55
2023/04/20 08:39:29;;;;;;;33.05;16.60;;;;;;;13.53;64.03;102030.94;5021080;28;20041;-57
2023/04/20 08:41:56;;;;;;;36.10;17.58;;;;;;;13.59;63.85;102037.69;5023117;28;20033;-54
2023/04/20 08:44:22;;;;;;;29.88;16.20;;;;;;;13.65;63.78;102039.19;5022272;28;20403;-53
2023/04/20 08:46:48;;;;;;;31.88;16.65;;;;;;;13.70;63.68;102030.06;5022324;28;20496;-55
2023/04/20 08:49:15;;;;;;;33.45;18.23;;;;;;;13.79;63.92;102025.25;5025829;28;20033;-54
2023/04/20 08:51:41;;;;;;;34.92;18.58;;;;;;;13.84;63.97;102029.38;5021679;28;20033;-55
2023/04/20 08:54:06;;;;;;;29.63;16.13;;;;;;;13.88;64.11;102035.38;5019887;28;20140;-53
2023/04/20 08:56:34;;;;;;;27.33;15.38;;;;;;;13.92;63.93;102026.34;5017137;28;20163;-53
2023/04/20 08:59:02;;;;;;;33.00;15.98;;;;;;;13.97;63.93;102028.75;5018994;28;20025;-54
2023/04/20 09:01:28;;;;;;;27.13;16.17;;;;;;;14.00;63.63;102024.16;5022907;28;20120;-54
2023/04/20 09:03:53;;;;;;;30.23;17.45;;;;;;;14.09;63.67;102022.81;5022622;28;20129;-56
2023/04/20 09:06:19;;;;;;;30.20;17.63;;;;;;;14.12;63.66;102013.88;5025137;28;20099;-52
2023/04/20 09:08:45;;;;;;;28.35;17.42;;;;;;;14.14;63.56;102009.38;5026147;28;20435;-54
2023/04/20 09:11:31;;;;;;;29.83;17.25;;;;;;;14.15;63.55;102018.97;5020128;28;20049;-55
2023/04/20 09:14:01;;;;;;;32.65;18.25;;;;;;;14.12;63.77;102017.38;5023619;28;20095;-55
2023/04/20 09:16:27;;;;;;;30.67;16.95;;;;;;;14.08;63.49;102028.19;5018889;28;20111;-56
2023/04/20 09:18:55;;;;;;;35.17;15.30;;;;;;;14.13;63.41;102018.22;5027551;28;20038;-52
2023/04/20 09:21:21;;;;;;;32.55;17.35;;;;;;;14.19;63.46;102020.53;5023268;28;20039;-56
2023/04/20 09:24:07;;;;;;;24.85;16.48;;;;;;;14.35;63.47;102028.53;5026623;28;20029;-55
2023/04/20 09:26:33;;;;;;;32.28;17.17;;;;;;;14.48;63.13;102020.78;5022996;28;20484;-55
2023/04/20 09:29:00;;;;;;;30.75;16.33;;;;;;;14.65;63.11;102025.19;5028315;28;20038;-56
2023/04/20 09:31:26;;;;;;;41.50;25.17;;;;;;;14.77;62.81;102019.22;5026128;28;20030;-56
2023/04/20 09:33:56;;;;;;;27.98;15.43;;;;;;;14.86;62.58;102020.53;5025956;28;20116;-54
2023/04/20 09:36:22;;;;;;;29.13;15.55;;;;;;;14.91;62.38;102018.44;5023563;28;20160;-55
2023/04/20 09:38:48;;;;;;;29.42;15.18;;;;;;;14.96;62.29;102017.34;5027532;28;20021;-55
2023/04/20 09:41:17;;;;;;;27.98;15.18;;;;;;;15.01;61.96;102029.41;5018643;28;20048;-56
2023/04/20 09:43:43;;;;;;;23.27;15.45;;;;;;;15.03;61.94;102013.41;5026810;28;20488;-55
2023/04/20 09:46:09;;;;;;;22.88;15.05;;;;;;;15.07;61.82;102025.53;5023091;28;20250;-56
2023/04/20 09:48:34;;;;;;;26.08;14.88;;;;;;;15.10;61.91;102030.69;5021907;28;20028;-56
2023/04/20 09:51:02;;;;;;;22.67;13.57;;;;;;;15.13;61.55;102025.22;5025970;28;20042;-56
2023/04/20 09:53:29;;;;;;;22.23;13.93;;;;;;;15.16;61.56;102022.38;5025396;28;20026;-56
2023/04/20 09:55:57;;;;;;;21.42;15.25;;;;;;;15.16;61.62;102025.03;5023007;28;21093;-56
2023/04/20 09:58:22;;;;;;;26.65;16.73;;;;;;;15.21;61.48;102028.25;5023153;28;20029;-54
2023/04/20 10:00:48;;;;;;;25.67;16.25;;;;;;;15.24;61.22;102025.44;5026969;28;20491;-55
2023/04/20 10:03:18;;;;;;;22.48;14.57;;;;;;;15.27;61.05;102020.91;5029413;28;20475;-55
2023/04/20 10:05:43;;;;;;;28.55;15.73;;;;;;;15.25;60.84;102023.66;5028339;28;20037;-56
2023/04/20 10:08:10;;;;;;;25.52;15.88;;;;;;;15.20;60.81;102015.94;5004210;28;20573;-56
2023/04/20 10:10:47;;;;;;;35.20;20.80;;;;;;;15.18;60.31;102020.50;5017671;28;20373;-56
2023/04/20 10:13:13;;;;;;;30.67;15.23;;;;;;;15.21;60.78;102014.16;5018506;28;20040;-56
2023/04/20 10:15:41;;;;;;;23.05;15.25;;;;;;;15.24;60.52;102011.34;5021059;28;20086;-55
2023/04/20 10:18:22;;;;;;;23.00;14.45;;;;;;;15.23;60.31;102005.16;5029413;28;20115;-56
2023/04/20 10:20:47;;;;;;;20.60;14.13;;;;;;;15.16;60.39;101993.22;5021923;28;20212;-55
2023/04/20 10:23:14;;;;;;;22.58;14.73;;;;;;;15.14;60.56;101999.53;5024324;28;20035;-52
2023/04/20 10:25:41;;;;;;;22.17;13.90;;;;;;;15.12;60.65;101996.16;5015099;28;20036;-55
2023/04/20 10:28:10;;;;;;;24.15;15.70;;;;;;;15.10;60.43;101990.91;5028356;28;20625;-55
2023/04/20 10:30:36;;;;;;;23.95;14.60;;;;;;;15.08;60.56;101990.13;5021422;28;20036;-56
2023/04/20 10:33:08;;;;;;;26.55;16.33;;;;;;;15.05;60.42;101985.03;5017313;28;20029;-54
2023/04/20 10:36:00;;;;;;;24.92;14.35;;;;;;;15.07;60.40;101985.78;5008883;28;20037;-52
2023/04/20 10:38:33;;;;;;;41.33;24.40;;;;;;;15.06;60.48;101981.41;5013535;28;20076;-56
2023/04/20 10:41:09;;;;;;;30.42;17.42;;;;;;;15.08;60.49;101990.13;5017532;28;20045;-55
2023/04/20 10:43:34;;;;;;;22.88;14.13;;;;;;;15.10;60.54;101988.25;5016602;28;20076;-56
2023/04/20 10:46:00;;;;;;;21.38;14.15;;;;;;;15.09;60.69;101982.13;5013330;28;20383;-53
2023/04/20 10:48:25;;;;;;;22.33;13.27;;;;;;;15.11;60.57;101978.53;5022706;28;20025;-55
2023/04/20 10:50:51;;;;;;;20.30;13.13;;;;;;;15.13;60.46;101982.78;5018141;28;20488;-56
2023/04/20 10:53:21;;;;;;;18.58;12.73;;;;;;;15.18;60.18;101980.75;5015690;28;20041;-55
2023/04/20 10:55:56;;;;;;;22.00;12.77;;;;;;;15.23;60.24;101980.47;5023177;28;20037;-52
2023/04/20 10:58:23;;;;;;;21.20;12.93;;;;;;;15.27;60.03;101974.06;5019804;28;20025;-55
2023/04/20 11:01:03;;;;;;;24.10;12.57;;;;;;;15.32;59.90;101971.97;5016142;28;20038;-56
2023/04/20 11:03:30;;;;;;;22.45;12.57;;;;;;;15.34;59.84;101978.03;5012591;28;20029;-54
2023/04/20 11:06:00;;;;;;;18.63;11.65;;;;;;;15.40;59.86;101976.81;5016667;28;20036;-56
2023/04/20 11:08:39;;;;;;;21.05;11.75;;;;;;;15.49;59.46;101984.25;5014970;28;20947;-54
2023/04/20 11:11:05;;;;;;;20.83;11.45;;;;;;;15.51;59.58;101971.72;5019875;28;20080;-56
2023/04/20 11:13:31;;;;;;;24.48;15.27;;;;;;;15.57;59.34;101980.28;5014377;28;20044;-52
2023/04/20 11:15:58;;;;;;;20.30;13.00;;;;;;;15.64;59.30;101981.63;5013288;28;20030;-52